createdAt,value
2024-01-05T00:01:08.240Z,99823.94
2024-01-05T00:04:11.335Z,99828.28
2024-01-05T00:07:14.170Z,99843.56
2024-01-05T00:10:17.259Z,99838.53
2024-01-05T00:13:22.130Z,99838.91
2024-01-05T00:16:25.251Z,99833.69
2024-01-05T00:19:28.083Z,99850.16
2024-01-05T00:22:30.977Z,99852.56
2024-01-05T00:25:33.585Z,99864.31
2024-01-05T00:28:36.073Z,99868.22
2024-01-05T00:31:38.706Z,99866.69
2024-01-05T00:34:41.903Z,99868.66
2024-01-05T00:37:44.523Z,99867.00
2024-01-05T00:40:47.417Z,99868.03
2024-01-05T00:43:49.937Z,99862.22
2024-01-05T00:46:52.792Z,99857.72
2024-01-05T00:49:55.310Z,99862.22
2024-01-05T00:52:58.256Z,99853.66
2024-01-05T00:56:00.776Z,99865.63
2024-01-05T00:59:03.712Z,99870.00
2024-01-05T01:02:06.128Z,99867.41
2024-01-05T01:05:09.411Z,99859.47
2024-01-05T01:08:13.882Z,99872.37
2024-01-05T01:11:17.147Z,99858.03
2024-01-05T01:14:19.559Z,99865.81
2024-01-05T01:17:23.488Z,99860.62
2024-01-05T01:20:26.011Z,99860.75
2024-01-05T01:23:28.633Z,99852.28
2024-01-05T01:26:30.910Z,99852.47
2024-01-05T01:29:33.655Z,99862.06
2024-01-05T01:32:38.269Z,99856.69
2024-01-05T01:35:41.528Z,99854.97
2024-01-05T01:38:43.846Z,99849.88
2024-01-05T01:41:46.607Z,99848.13
2024-01-05T01:44:49.206Z,99847.34
2024-01-05T01:47:53.024Z,99847.59
2024-01-05T01:50:56.661Z,99847.75
2024-01-05T01:54:00.257Z,99841.87
2024-01-05T01:57:03.911Z,99855.78
2024-01-05T02:00:07.279Z,99848.03
2024-01-05T02:03:10.630Z,99856.97
2024-01-05T02:06:14.538Z,99847.63
2024-01-05T02:09:17.140Z,99852.81
2024-01-05T02:12:20.147Z,99853.66
2024-01-05T02:15:22.665Z,99850.16
2024-01-05T02:18:25.636Z,99845.16
2024-01-05T02:21:30.985Z,99842.19
2024-01-05T02:24:33.975Z,99848.19
2024-01-05T02:27:36.961Z,99858.66
2024-01-05T02:30:39.857Z,99861.81
2024-01-05T02:33:42.327Z,99866.66
2024-01-05T02:36:45.823Z,99862.94
2024-01-05T02:39:48.557Z,99857.66
2024-01-05T02:42:51.400Z,99854.47
2024-01-05T02:45:53.996Z,99860.84
2024-01-05T02:48:56.796Z,99863.00
2024-01-05T02:51:59.410Z,99863.28
2024-01-05T02:55:02.557Z,99858.25
2024-01-05T02:58:05.273Z,99861.91
2024-01-05T03:01:08.153Z,99851.78
2024-01-05T03:04:12.544Z,99840.78
2024-01-05T03:07:15.520Z,99843.88
2024-01-05T03:10:18.043Z,99844.03
2024-01-05T03:13:20.878Z,99839.25
2024-01-05T03:16:23.482Z,99846.16
2024-01-05T03:19:26.341Z,99831.47
2024-01-05T03:22:31.278Z,99820.31
2024-01-05T03:25:35.097Z,99822.81
2024-01-05T03:28:39.134Z,99832.31
2024-01-05T03:31:44.887Z,99824.78
2024-01-05T03:34:47.401Z,99819.25
2024-01-05T03:37:50.968Z,99806.97
2024-01-05T03:40:53.312Z,99814.94
2024-01-05T03:43:56.279Z,99819.25
2024-01-05T03:46:58.551Z,99822.84
2024-01-05T03:50:01.311Z,99830.12
2024-01-05T03:53:04.071Z,99848.44
2024-01-05T03:56:06.853Z,99852.84
2024-01-05T03:59:09.751Z,99860.53
2024-01-05T04:02:12.804Z,99870.16
2024-01-05T04:05:15.773Z,99869.53
2024-01-05T04:08:18.202Z,99864.91
2024-01-05T04:11:21.822Z,99869.81
2024-01-05T04:14:24.559Z,99865.97
2024-01-05T04:17:27.491Z,99857.81
2024-01-05T04:20:30.117Z,99861.72
2024-01-05T04:23:32.942Z,99862.03
2024-01-05T04:26:35.520Z,99857.94
2024-01-05T04:29:39.928Z,99866.88
2024-01-05T04:32:43.196Z,99865.44
2024-01-05T04:35:47.460Z,99873.41
2024-01-05T04:38:50.034Z,99870.97
2024-01-05T04:41:52.835Z,99867.66
2024-01-05T04:44:55.262Z,99878.81
2024-01-05T04:47:57.987Z,99884.13
2024-01-05T04:51:01.380Z,99891.00
2024-01-05T04:54:04.870Z,99881.41
2024-01-05T04:57:07.567Z,99883.06
2024-01-05T05:00:10.600Z,99904.53
2024-01-05T05:03:16.583Z,99902.03
2024-01-05T05:06:19.574Z,99900.31
2024-01-05T05:09:22.152Z,99915.91
2024-01-05T05:12:25.007Z,99924.63
2024-01-05T05:15:27.353Z,99920.41
2024-01-05T05:18:30.359Z,99916.19
2024-01-05T05:21:33.182Z,99908.59
2024-01-05T05:24:36.494Z,99906.72
2024-01-05T05:27:39.190Z,99901.53
2024-01-05T05:30:42.119Z,99906.72
2024-01-05T05:33:44.677Z,99912.03
2024-01-05T05:36:47.637Z,99908.72
2024-01-05T05:39:50.324Z,99915.72
2024-01-05T05:42:53.212Z,99918.44
2024-01-05T05:45:56.586Z,99918.44
2024-01-05T05:48:59.738Z,99913.12
2024-01-05T05:52:02.432Z,99923.13
2024-01-05T05:55:06.662Z,99931.53
2024-01-05T05:58:09.233Z,99933.06
2024-01-05T06:01:14.370Z,99944.16
2024-01-05T06:04:18.109Z,99946.56
2024-01-05T06:07:20.768Z,99951.84
2024-01-05T06:10:23.658Z,99958.56
2024-01-05T06:13:26.218Z,99965.13
2024-01-05T06:16:28.830Z,99965.06
2024-01-05T06:19:31.463Z,99974.41
2024-01-05T06:22:34.465Z,99973.56
2024-01-05T06:25:37.080Z,99979.66
2024-01-05T06:28:39.696Z,99983.00
2024-01-05T06:31:42.643Z,99974.59
2024-01-05T06:34:45.832Z,99981.62
2024-01-05T06:37:48.654Z,99980.06
2024-01-05T06:40:51.494Z,99981.13
2024-01-05T06:43:54.067Z,99987.28
2024-01-05T06:46:57.013Z,99980.56
2024-01-05T06:49:59.516Z,99978.13
2024-01-05T06:53:02.180Z,99977.16
2024-01-05T06:56:05.994Z,99965.94
2024-01-05T06:59:09.292Z,99957.31
2024-01-05T07:02:12.188Z,99951.22
2024-01-05T07:05:15.211Z,99957.03
2024-01-05T07:08:17.796Z,99963.00
2024-01-05T07:11:22.131Z,99956.19
2024-01-05T07:14:24.490Z,99957.00
2024-01-05T07:17:27.509Z,99951.03
2024-01-05T07:20:29.842Z,99954.47
2024-01-05T07:23:32.755Z,99954.41
2024-01-05T07:26:35.084Z,99954.41
2024-01-05T07:29:37.752Z,99943.31
2024-01-05T07:32:40.161Z,99935.66
2024-01-05T07:35:42.799Z,99933.97
2024-01-05T07:38:45.060Z,99939.91
2024-01-05T07:41:48.244Z,99939.78
2024-01-05T07:44:52.809Z,99942.19
2024-01-05T07:47:59.522Z,99931.53
2024-01-05T07:51:05.342Z,99932.00
2024-01-05T07:54:08.186Z,99923.44
2024-01-05T07:57:10.873Z,99932.66
2024-01-05T08:00:13.761Z,99919.88
2024-01-05T08:03:16.378Z,99926.25
2024-01-05T08:06:19.434Z,99941.06
2024-01-05T08:09:22.549Z,99944.00
2024-01-05T08:12:24.990Z,99947.97
2024-01-05T08:15:29.245Z,99949.38
2024-01-05T08:18:31.892Z,99948.41
2024-01-05T08:21:34.577Z,99963.03
2024-01-05T08:24:38.763Z,99966.47
2024-01-05T08:27:41.805Z,99969.84
2024-01-05T08:30:45.289Z,99963.72
2024-01-05T08:33:48.246Z,99967.00
2024-01-05T08:36:51.067Z,99969.53
2024-01-05T08:39:54.105Z,99976.81
2024-01-05T08:42:56.928Z,99980.94
2024-01-05T08:46:00.056Z,99966.00
2024-01-05T08:49:02.613Z,99973.25
2024-01-05T08:52:05.704Z,99979.00
2024-01-05T08:55:09.038Z,99983.69
2024-01-05T08:58:11.874Z,99991.03
2024-01-05T09:01:14.290Z,99997.62
2024-01-05T09:04:17.267Z,99995.84
2024-01-05T09:07:20.577Z,99996.09
2024-01-05T09:10:23.221Z,99994.41
2024-01-05T09:13:25.504Z,99990.47
2024-01-05T09:16:28.371Z,99993.44
2024-01-05T09:19:31.114Z,100002.53
2024-01-05T09:22:33.771Z,100005.06
2024-01-05T09:25:38.627Z,100007.34
2024-01-05T09:28:43.573Z,100002.31
2024-01-05T09:31:47.626Z,100004.13
2024-01-05T09:34:50.747Z,100006.63
2024-01-05T09:37:53.528Z,100005.59
2024-01-05T09:40:56.725Z,100003.88
2024-01-05T09:44:01.038Z,100009.72
2024-01-05T09:47:03.904Z,100013.75
2024-01-05T09:50:06.865Z,100000.47
2024-01-05T09:53:13.052Z,99981.28
2024-01-05T09:56:16.516Z,99976.97
2024-01-05T09:59:20.591Z,99976.63
2024-01-05T10:02:28.109Z,99976.97
2024-01-05T10:05:31.600Z,99962.19
2024-01-05T10:08:34.271Z,99967.72
2024-01-05T10:11:38.377Z,99950.22
2024-01-05T10:14:40.891Z,99949.66
2024-01-05T10:17:43.701Z,99933.03
2024-01-05T10:20:46.409Z,99934.72
2024-01-05T10:23:49.117Z,99928.25
2024-01-05T10:27:17.981Z,99926.03
2024-01-05T10:30:25.990Z,99921.44
2024-01-05T10:33:28.638Z,99917.16
2024-01-05T10:36:31.628Z,99914.22
2024-01-05T10:39:34.245Z,99906.41
2024-01-05T10:42:36.891Z,99904.97
2024-01-05T10:45:40.601Z,99898.66
2024-01-05T10:48:44.096Z,99897.72
2024-01-05T10:51:46.996Z,99884.69
2024-01-05T10:54:51.388Z,99881.31
2024-01-05T10:57:55.012Z,99877.81
2024-01-05T11:01:01.010Z,99861.03
2024-01-05T11:04:04.556Z,99855.81
2024-01-05T11:07:08.147Z,99851.75
2024-01-05T11:10:29.682Z,99852.56
2024-01-05T11:13:41.881Z,99856.22
2024-01-05T11:16:44.222Z,99857.59
2024-01-05T11:19:47.022Z,99850.44
2024-01-05T11:22:50.813Z,99847.34
2024-01-05T11:25:55.578Z,99836.03
2024-01-05T11:28:58.238Z,99842.41
2024-01-05T11:32:01.158Z,99830.59
2024-01-05T11:35:04.243Z,99825.72
2024-01-05T11:38:26.109Z,99812.91
2024-01-05T11:41:32.901Z,99810.91
2024-01-05T11:44:36.018Z,99807.69
2024-01-05T11:47:38.382Z,99811.03
2024-01-05T11:50:41.148Z,99805.31
2024-01-05T11:53:45.076Z,99796.94
2024-01-05T11:56:48.173Z,99800.59
2024-01-05T11:59:56.908Z,99798.19
2024-01-05T12:03:03.983Z,99803.09
2024-01-05T12:06:07.980Z,99795.44
2024-01-05T12:09:10.547Z,99807.84
2024-01-05T12:12:17.676Z,99809.78
2024-01-05T12:15:22.908Z,99807.06
2024-01-05T12:18:34.945Z,99805.38
2024-01-05T12:21:40.777Z,99801.44
2024-01-05T12:24:45.828Z,99807.72
2024-01-05T12:27:49.113Z,99802.22
2024-01-05T12:30:52.185Z,99794.63
2024-01-05T12:33:54.925Z,99795.41
2024-01-05T12:37:08.543Z,99792.53
2024-01-05T12:40:12.085Z,99795.81
2024-01-05T12:43:17.344Z,99799.97
2024-01-05T12:46:20.651Z,99798.56
2024-01-05T12:49:25.583Z,99777.53
2024-01-05T12:52:36.513Z,99780.06
2024-01-05T12:55:39.425Z,99772.94
2024-01-05T12:58:42.605Z,99764.81
2024-01-05T13:01:45.498Z,99757.97
2024-01-05T13:04:48.450Z,99766.50
2024-01-05T13:07:51.066Z,99750.09
2024-01-05T13:10:53.540Z,99751.88
2024-01-05T13:13:56.761Z,99759.03
2024-01-05T13:16:59.273Z,99764.87
2024-01-05T13:20:02.125Z,99761.97
2024-01-05T13:23:05.720Z,99760.00
2024-01-05T13:26:08.341Z,99763.06
2024-01-05T13:29:10.766Z,99752.72
2024-01-05T13:32:13.400Z,99748.09
2024-01-05T13:35:16.128Z,99761.38
2024-01-05T13:38:19.764Z,99751.94
2024-01-05T13:41:22.416Z,99742.31
2024-01-05T13:44:27.033Z,99748.66
2024-01-05T13:47:29.429Z,99747.19
2024-01-05T13:50:32.068Z,99755.44
2024-01-05T13:53:34.394Z,99749.25
2024-01-05T13:56:37.311Z,99751.78
2024-01-05T13:59:39.946Z,99751.34
2024-01-05T14:02:43.302Z,99744.00
2024-01-05T14:05:46.092Z,99745.59
2024-01-05T14:08:48.681Z,99743.28
2024-01-05T14:11:51.703Z,99740.16
2024-01-05T14:14:54.039Z,99739.00
2024-01-05T14:17:56.858Z,99736.72
2024-01-05T14:21:00.457Z,99732.56
2024-01-05T14:24:03.363Z,99743.41
2024-01-05T14:27:06.352Z,99739.50
2024-01-05T14:30:09.705Z,99742.94
2024-01-05T14:33:12.828Z,99743.31
2024-01-05T14:36:16.742Z,99740.03
2024-01-05T14:39:19.869Z,99741.81
2024-01-05T14:42:22.796Z,99740.41
2024-01-05T14:45:25.600Z,99743.59
2024-01-05T14:48:29.544Z,99739.50
2024-01-05T14:51:32.496Z,99744.03
2024-01-05T14:54:35.113Z,99749.78
2024-01-05T14:57:37.621Z,99759.94
2024-01-05T15:00:40.560Z,99743.53
2024-01-05T15:03:43.354Z,99751.69
2024-01-05T15:06:46.142Z,99747.78
2024-01-05T15:09:48.480Z,99750.69
2024-01-05T15:12:51.584Z,99750.97
2024-01-05T15:15:54.589Z,99749.50
2024-01-05T15:18:57.660Z,99751.41
2024-01-05T15:22:00.158Z,99748.34
2024-01-05T15:25:03.213Z,99751.19
2024-01-05T15:28:05.748Z,99749.69
2024-01-05T15:31:16.511Z,99751.34
2024-01-05T15:34:19.088Z,99742.03
2024-01-05T15:37:21.784Z,99749.16
2024-01-05T15:40:30.934Z,99750.22
2024-01-05T15:43:36.724Z,99742.75
2024-01-05T15:46:39.104Z,99752.47
2024-01-05T15:49:42.057Z,99748.34
2024-01-05T15:52:44.533Z,99743.16
2024-01-05T15:55:55.085Z,99739.06
2024-01-05T15:59:00.898Z,99746.06
2024-01-05T16:02:04.509Z,99744.50
2024-01-05T16:05:07.580Z,99735.94
2024-01-05T16:08:10.240Z,99730.97
2024-01-05T16:11:12.863Z,99744.88
2024-01-05T16:14:15.328Z,99749.34
2024-01-05T16:17:17.914Z,99752.00
2024-01-05T16:20:20.488Z,99751.22
2024-01-05T16:23:23.367Z,99740.97
2024-01-05T16:26:26.420Z,99748.59
2024-01-05T16:29:29.005Z,99741.56
2024-01-05T16:32:31.588Z,99745.66
2024-01-05T16:35:34.554Z,99749.50
2024-01-05T16:38:37.513Z,99743.38
2024-01-05T16:41:40.258Z,99737.25
2024-01-05T16:44:44.319Z,99732.31
2024-01-05T16:47:47.064Z,99745.34
2024-01-05T16:50:49.397Z,99740.25
2024-01-05T16:53:52.330Z,99745.56
2024-01-05T16:56:55.159Z,99751.84
2024-01-05T16:59:57.761Z,99753.81
2024-01-05T17:03:04.430Z,99755.72
2024-01-05T17:06:18.892Z,99757.06
2024-01-05T17:09:23.017Z,99763.97
2024-01-05T17:12:26.001Z,99759.94
2024-01-05T17:15:28.541Z,99757.41
2024-01-05T17:18:31.429Z,99754.84
2024-01-05T17:21:34.063Z,99756.25
2024-01-05T17:24:38.200Z,99751.00
2024-01-05T17:27:40.644Z,99757.03
2024-01-05T17:30:44.299Z,99751.16
2024-01-05T17:33:46.992Z,99752.34
2024-01-05T17:36:49.628Z,99752.81
2024-01-05T17:39:52.069Z,99750.78
2024-01-05T17:42:54.691Z,99755.38
2024-01-05T17:45:57.101Z,99756.41
2024-01-05T17:49:00.035Z,99752.97
2024-01-05T17:52:02.777Z,99751.66
2024-01-05T17:55:05.700Z,99751.03
2024-01-05T17:58:08.322Z,99747.94
2024-01-05T18:01:13.291Z,99746.50
2024-01-05T18:04:16.830Z,99752.66
2024-01-05T18:07:19.400Z,99753.72
2024-01-05T18:10:23.751Z,99760.75
2024-01-05T18:13:26.104Z,99754.78
2024-01-05T18:16:30.023Z,99754.78
2024-01-05T18:19:32.674Z,99751.59
2024-01-05T18:22:35.608Z,99757.63
2024-01-05T18:25:38.115Z,99765.44
2024-01-05T18:28:40.718Z,99761.16
2024-01-05T18:31:43.218Z,99753.66
2024-01-05T18:34:47.987Z,99770.22
2024-01-05T18:37:50.406Z,99767.81
2024-01-05T18:40:53.061Z,99757.50
2024-01-05T18:43:55.395Z,99768.84
2024-01-05T18:47:01.127Z,99770.63
2024-01-05T18:50:04.346Z,99768.06
2024-01-05T18:53:07.113Z,99772.25
2024-01-05T18:56:10.107Z,99774.03
2024-01-05T18:59:12.706Z,99778.41
2024-01-05T19:02:15.060Z,99768.06
2024-01-05T19:05:17.693Z,99775.78
2024-01-05T19:08:20.536Z,99773.84
2024-01-05T19:11:23.434Z,99768.44
2024-01-05T19:14:25.793Z,99758.88
2024-01-05T19:17:28.472Z,99761.16
2024-01-05T19:20:32.865Z,99753.19
2024-01-05T19:23:35.697Z,99754.78
2024-01-05T19:26:38.234Z,99755.22
2024-01-05T19:29:42.929Z,99755.69
2024-01-05T19:32:46.085Z,99747.56
2024-01-05T19:35:48.729Z,99746.44
2024-01-05T19:38:51.103Z,99748.97
2024-01-05T19:41:54.243Z,99751.81
2024-01-05T19:44:58.070Z,99739.66
2024-01-05T19:48:01.208Z,99743.75
2024-01-05T19:51:04.788Z,99735.06
2024-01-05T19:54:07.794Z,99733.47
2024-01-05T19:57:10.355Z,99740.69
2024-01-05T20:00:14.342Z,99739.19
2024-01-05T20:03:17.186Z,99743.91
2024-01-05T20:06:20.467Z,99740.69
2024-01-05T20:09:23.933Z,99737.53
2024-01-05T20:12:26.413Z,99741.19
2024-01-05T20:15:30.709Z,99735.44
2024-01-05T20:18:34.051Z,99724.56
2024-01-05T20:21:36.758Z,99725.63
2024-01-05T20:24:39.392Z,99721.47
2024-01-05T20:27:42.642Z,99715.56
2024-01-05T20:30:47.583Z,99708.91
2024-01-05T20:33:53.689Z,99713.56
2024-01-05T20:36:56.522Z,99718.28
2024-01-05T20:39:59.292Z,99714.28
2024-01-05T20:43:01.768Z,99717.38
2024-01-05T20:46:04.505Z,99713.47
2024-01-05T20:49:07.522Z,99714.59
2024-01-05T20:52:11.074Z,99713.09
2024-01-05T20:55:13.455Z,99717.69
2024-01-05T20:58:16.054Z,99714.47
2024-01-05T21:01:19.626Z,99699.00
2024-01-05T21:04:23.317Z,99702.44
2024-01-05T21:07:26.112Z,99690.44
2024-01-05T21:10:28.762Z,99694.69
2024-01-05T21:13:31.061Z,99690.34
2024-01-05T21:16:35.486Z,99686.13
2024-01-05T21:19:38.644Z,99684.50
2024-01-05T21:22:41.905Z,99679.25
2024-01-05T21:25:44.484Z,99683.59
2024-01-05T21:28:47.091Z,99683.38
2024-01-05T21:31:51.105Z,99680.72
2024-01-05T21:34:56.319Z,99678.84
2024-01-05T21:37:58.867Z,99681.41
2024-01-05T21:41:01.622Z,99677.91
2024-01-05T21:44:04.418Z,99669.22
2024-01-05T21:47:07.129Z,99664.06
2024-01-05T21:50:10.951Z,99660.59
2024-01-05T21:53:14.223Z,99667.47
2024-01-05T21:56:16.539Z,99671.66
2024-01-05T21:59:19.129Z,99655.28
2024-01-05T22:02:21.474Z,99656.81
2024-01-05T22:05:24.266Z,99661.16
2024-01-05T22:08:27.053Z,99662.75
2024-01-05T22:11:31.013Z,99652.25
2024-01-05T22:14:33.608Z,99651.81
2024-01-05T22:17:36.479Z,99648.31
2024-01-05T22:20:43.169Z,99651.81
2024-01-05T22:23:47.077Z,99655.31
2024-01-05T22:26:49.464Z,99642.31
2024-01-05T22:29:52.205Z,99637.13
2024-01-05T22:32:54.879Z,99631.19
2024-01-05T22:36:01.759Z,99626.19
2024-01-05T22:39:06.818Z,99620.91
2024-01-05T22:42:11.757Z,99626.19
2024-01-05T22:45:14.318Z,99623.81
2024-01-05T22:48:17.210Z,99621.34
2024-01-05T22:51:23.789Z,99629.16
2024-01-05T22:54:26.538Z,99615.78
2024-01-05T22:57:28.962Z,99621.56
2024-01-05T23:00:34.840Z,99613.25
2024-01-05T23:03:37.808Z,99607.56
2024-01-05T23:06:40.561Z,99614.41
2024-01-05T23:09:43.566Z,99604.03
2024-01-05T23:12:46.601Z,99607.22
2024-01-05T23:15:49.498Z,99612.66
2024-01-05T23:18:53.263Z,99594.56
2024-01-05T23:21:56.130Z,99599.94
2024-01-05T23:24:59.084Z,99596.63
2024-01-05T23:28:01.800Z,99591.25
2024-01-05T23:31:04.666Z,99592.84
2024-01-05T23:34:15.975Z,99598.00
2024-01-05T23:37:20.143Z,99594.69
2024-01-05T23:40:22.476Z,99601.56
2024-01-05T23:43:25.110Z,99584.31
2024-01-05T23:46:27.536Z,99578.94
2024-01-05T23:49:30.575Z,99583.84
2024-01-05T23:52:36.456Z,99576.22
2024-01-05T23:55:39.367Z,99575.31
2024-01-05T23:58:41.945Z,99581.25
